Time;durP1;ratioP1;P1;durP2;ratioP2;P2;SDS_P1;SDS_P2;PMS_P1;PMS_P2;Temp;Humidity;BMP_temperature;BMP_pressure;BME280_temperature;BME280_humidity;BME280_pressure;Samples;Min_cycle;Max_cycle;Signal;HPM_P1;HPM_P2
2022/07/13 00:00:16;;;;;;;4.80;2.97;;;24.30;57.40;;;;;;5038146;28;20050;-45
2022/07/13 00:02:42;;;;;;;4.95;3.03;;;24.20;57.10;;;;;;5038349;28;20018;-47
2022/07/13 00:05:09;;;;;;;4.18;2.72;;;24.20;58.50;;;;;;5046832;28;20511;-50
2022/07/13 00:07:35;;;;;;;8.35;3.10;;;24.10;56.90;;;;;;5057101;28;20017;-47
2022/07/13 00:10:02;;;;;;;5.55;2.78;;;24.10;54.80;;;;;;5056903;28;20389;-45
2022/07/13 00:12:28;;;;;;;5.60;3.17;;;24.10;56.70;;;;;;5042495;28;20029;-45
2022/07/13 00:14:54;;;;;;;6.55;2.78;;;24.10;57.40;;;;;;5048690;28;20036;-46
2022/07/13 00:17:19;;;;;;;4.45;2.70;;;24.00;56.10;;;;;;5038447;28;20031;-49
2022/07/13 00:19:45;;;;;;;4.63;2.88;;;24.00;55.10;;;;;;5047225;28;20480;-48
2022/07/13 00:22:11;;;;;;;4.38;2.80;;;24.00;52.80;;;;;;5053309;28;20091;-47
2022/07/13 00:24:37;;;;;;;5.25;3.00;;;23.90;57.70;;;;;;5050945;28;20033;-47
2022/07/13 00:27:03;;;;;;;4.70;2.83;;;23.80;54.30;;;;;;5051230;28;20025;-47
2022/07/13 00:29:29;;;;;;;4.53;2.67;;;23.90;57.20;;;;;;5049092;28;20039;-46
2022/07/13 00:31:55;;;;;;;5.43;2.80;;;23.80;56.70;;;;;;5042304;28;20013;-43
2022/07/13 00:34:21;;;;;;;6.60;3.08;;;23.80;56.30;;;;;;5051304;28;20029;-47
2022/07/13 00:36:46;;;;;;;4.85;3.08;;;23.80;54.70;;;;;;5046311;28;20036;-45
2022/07/13 00:39:12;;;;;;;3.97;2.85;;;23.70;54.10;;;;;;5043093;28;20488;-46
2022/07/13 00:41:48;;;;;;;3.10;2.53;;;23.70;54.70;;;;;;5043805;28;20097;-47
2022/07/13 00:44:15;;;;;;;4.28;2.90;;;23.70;56.30;;;;;;5035891;28;20405;-44
2022/07/13 00:46:45;;;;;;;4.60;2.90;;;23.60;58.90;;;;;;5035786;28;20021;-49
2022/07/13 00:49:12;;;;;;;5.30;3.25;;;23.60;59.60;;;;;;5046895;28;20025;-44
2022/07/13 00:51:39;;;;;;;5.28;2.88;;;23.60;55.60;;;;;;5040605;28;20021;-49
2022/07/13 00:54:06;;;;;;;4.43;3.00;;;23.60;59.40;;;;;;5038656;28;20053;-52
2022/07/13 00:56:32;;;;;;;5.03;2.80;;;23.60;58.90;;;;;;5044337;28;20036;-46
2022/07/13 00:59:01;;;;;;;4.88;2.85;;;23.60;58.40;;;;;;5054865;28;20448;-47
2022/07/13 01:01:27;;;;;;;4.18;2.88;;;23.60;56.30;;;;;;5048199;28;20029;-51
2022/07/13 01:03:53;;;;;;;5.57;3.40;;;23.50;58.90;;;;;;5049613;28;20025;-46
2022/07/13 01:06:19;;;;;;;4.68;3.05;;;23.50;58.80;;;;;;5057467;28;20017;-46
2022/07/13 01:08:46;;;;;;;5.22;3.20;;;23.40;56.70;;;;;;5055643;28;20067;-49
2022/07/13 01:11:12;;;;;;;3.63;2.88;;;23.40;58.40;;;;;;5052988;28;20021;-48
2022/07/13 01:13:39;;;;;;;5.20;3.03;;;23.30;58.30;;;;;;5038756;28;20113;-57
2022/07/13 01:16:05;;;;;;;5.05;3.17;;;23.30;60.10;;;;;;5038391;28;20036;-54
2022/07/13 01:18:32;;;;;;;4.13;2.90;;;23.20;59.80;;;;;;5047322;28;20080;-56
2022/07/13 01:20:58;;;;;;;4.20;2.70;;;23.20;60.20;;;;;;5039099;28;20014;-57
2022/07/13 01:23:24;;;;;;;3.72;2.90;;;23.20;60.20;;;;;;5056733;28;20507;-57
2022/07/13 01:25:50;;;;;;;4.75;3.00;;;23.20;57.60;;;;;;5047626;28;20022;-54
2022/07/13 01:28:16;;;;;;;3.80;3.00;;;23.10;60.00;;;;;;5047564;28;20036;-57
2022/07/13 01:30:43;;;;;;;4.47;3.08;;;23.10;60.50;;;;;;5041012;28;20373;-55
2022/07/13 01:33:09;;;;;;;4.50;3.25;;;23.00;61.00;;;;;;5039641;28;20037;-54
2022/07/13 01:35:34;;;;;;;5.07;2.95;;;23.00;60.20;;;;;;5057306;28;20357;-56
2022/07/13 01:38:00;;;;;;;4.13;2.97;;;23.00;61.00;;;;;;5055478;28;20095;-57
2022/07/13 01:40:26;;;;;;;5.03;2.80;;;23.00;60.70;;;;;;5037108;28;20055;-56
2022/07/13 01:42:53;;;;;;;4.03;2.80;;;23.00;61.20;;;;;;5042085;28;20104;-56
2022/07/13 01:45:21;;;;;;;4.78;2.90;;;22.90;60.40;;;;;;5036675;28;20040;-57
2022/07/13 01:47:48;;;;;;;3.63;2.90;;;22.90;59.00;;;;;;5036933;28;20033;-57
2022/07/13 01:50:16;;;;;;;6.45;3.42;;;22.90;61.20;;;;;;5037731;28;20018;-57
2022/07/13 01:52:42;;;;;;;7.30;3.40;;;22.80;59.60;;;;;;5050084;28;20033;-57
2022/07/13 01:55:10;;;;;;;5.00;3.20;;;22.80;60.70;;;;;;5040379;28;20056;-57
2022/07/13 01:57:37;;;;;;;3.60;2.88;;;22.80;61.60;;;;;;5045823;28;20029;-57
2022/07/13 02:00:07;;;;;;;5.57;3.17;;;22.80;61.10;;;;;;5048081;28;20125;-56
2022/07/13 02:02:33;;;;;;;4.53;2.88;;;22.70;61.50;;;;;;5053095;28;20434;-56
2022/07/13 02:04:59;;;;;;;5.88;3.10;;;22.70;60.00;;;;;;5057039;28;20112;-57
2022/07/13 02:07:25;;;;;;;3.63;2.85;;;22.70;60.90;;;;;;5049537;28;20370;-56
2022/07/13 02:09:50;;;;;;;5.82;3.35;;;22.70;61.30;;;;;;5055849;28;20095;-56
2022/07/13 02:12:17;;;;;;;6.57;3.33;;;22.60;61.40;;;;;;5047868;28;20029;-57
2022/07/13 02:14:43;;;;;;;5.72;3.30;;;22.60;62.60;;;;;;5047353;28;20104;-57
2022/07/13 02:17:09;;;;;;;3.17;2.80;;;22.60;61.20;;;;;;5051019;28;20076;-56
2022/07/13 02:19:35;;;;;;;3.22;2.85;;;22.60;61.90;;;;;;5058456;28;20025;-57
2022/07/13 02:22:01;;;;;;;6.20;3.15;;;22.50;60.90;;;;;;5049681;28;20040;-57
2022/07/13 02:24:27;;;;;;;5.20;2.90;;;22.50;62.30;;;;;;5060204;28;20029;-57
2022/07/13 02:26:53;;;;;;;4.65;2.85;;;22.50;62.70;;;;;;5058661;28;20105;-56
2022/07/13 02:29:18;;;;;;;5.82;3.13;;;22.40;61.80;;;;;;5057611;28;20020;-57
2022/07/13 02:31:44;;;;;;;5.32;3.13;;;22.40;62.50;;;;;;5058482;28;20619;-57
2022/07/13 02:34:10;;;;;;;5.20;3.20;;;22.40;62.40;;;;;;5059451;28;20048;-57
2022/07/13 02:36:36;;;;;;;3.90;3.03;;;22.30;62.90;;;;;;5058355;28;20026;-57
2022/07/13 02:39:03;;;;;;;5.68;3.17;;;22.30;62.70;;;;;;5055590;28;20013;-57
2022/07/13 02:41:29;;;;;;;4.65;3.17;;;22.30;62.90;;;;;;5059393;28;20147;-57
2022/07/13 02:43:55;;;;;;;4.88;2.85;;;22.20;62.70;;;;;;5059425;28;20059;-56
2022/07/13 02:46:20;;;;;;;6.20;2.85;;;22.20;62.60;;;;;;5059562;28;20037;-57
2022/07/13 02:48:46;;;;;;;3.65;3.10;;;22.20;62.80;;;;;;5057482;28;20485;-56
2022/07/13 02:51:12;;;;;;;4.40;3.10;;;22.20;61.80;;;;;;5058604;28;20017;-54
2022/07/13 02:53:38;;;;;;;6.35;3.40;;;22.10;62.90;;;;;;5059625;28;20100;-54
2022/07/13 02:56:07;;;;;;;5.93;3.30;;;22.10;63.30;;;;;;5048990;28;20104;-56
2022/07/13 02:58:33;;;;;;;5.28;3.10;;;22.00;62.00;;;;;;5049329;28;20029;-57
2022/07/13 03:00:58;;;;;;;4.35;3.20;;;22.00;62.70;;;;;;5058899;28;20064;-57
2022/07/13 03:03:24;;;;;;;4.82;3.10;;;22.00;63.90;;;;;;5044256;28;20481;-57
2022/07/13 03:05:50;;;;;;;6.15;3.28;;;22.00;63.40;;;;;;5039856;28;20478;-55
2022/07/13 03:08:16;;;;;;;4.10;3.00;;;21.90;63.90;;;;;;5051186;28;20033;-57
2022/07/13 03:10:42;;;;;;;6.00;3.50;;;21.90;64.30;;;;;;5040020;28;20029;-57
2022/07/13 03:13:08;;;;;;;4.95;3.17;;;21.90;61.60;;;;;;5040103;28;20085;-57
2022/07/13 03:15:34;;;;;;;5.07;2.95;;;21.80;64.30;;;;;;5040072;28;20033;-57
2022/07/13 03:17:59;;;;;;;3.53;3.00;;;21.80;63.30;;;;;;5047605;28;20021;-57
2022/07/13 03:20:25;;;;;;;5.63;3.10;;;21.80;63.70;;;;;;5058772;28;20029;-56
2022/07/13 03:22:51;;;;;;;5.13;3.08;;;21.70;62.60;;;;;;5058614;28;20060;-57
2022/07/13 03:25:17;;;;;;;6.47;3.53;;;21.70;62.70;;;;;;5054895;28;20086;-55
2022/07/13 03:27:43;;;;;;;7.38;3.17;;;21.70;62.70;;;;;;5048145;28;20423;-54
2022/07/13 03:30:09;;;;;;;4.95;3.13;;;21.60;62.50;;;;;;5056736;28;20028;-55
2022/07/13 03:32:35;;;;;;;4.50;3.15;;;21.60;63.40;;;;;;5058996;28;20021;-55
2022/07/13 03:35:00;;;;;;;4.82;3.42;;;21.60;63.60;;;;;;5058768;28;20071;-56
2022/07/13 03:37:26;;;;;;;5.10;3.28;;;21.50;63.70;;;;;;5053240;28;20029;-55
2022/07/13 03:39:52;;;;;;;4.50;3.20;;;21.50;65.00;;;;;;5040815;28;20026;-57
2022/07/13 03:42:18;;;;;;;5.15;3.35;;;21.50;63.10;;;;;;5038626;28;20112;-54
2022/07/13 03:44:44;;;;;;;6.70;3.60;;;21.40;64.10;;;;;;5038359;28;20084;-56
2022/07/13 03:47:09;;;;;;;5.25;3.38;;;21.40;63.60;;;;;;5053951;28;20034;-57
2022/07/13 03:49:35;;;;;;;3.80;3.28;;;21.40;65.00;;;;;;5038285;28;20090;-57
2022/07/13 03:52:01;;;;;;;5.65;3.15;;;21.40;63.00;;;;;;5039277;28;20103;-57
2022/07/13 03:54:27;;;;;;;5.78;3.25;;;21.30;64.90;;;;;;5053669;28;20029;-57
2022/07/13 03:56:52;;;;;;;6.43;2.95;;;21.30;65.20;;;;;;5054433;28;20029;-55
2022/07/13 03:59:18;;;;;;;5.53;3.25;;;21.30;64.80;;;;;;5052289;28;20513;-55
2022/07/13 04:01:44;;;;;;;5.10;3.03;;;21.30;65.10;;;;;;5050881;28;20060;-57
2022/07/13 04:04:10;;;;;;;4.85;3.28;;;21.30;64.50;;;;;;5039297;28;20033;-57
2022/07/13 04:06:36;;;;;;;4.47;3.08;;;21.30;63.40;;;;;;5041507;28;20095;-57
2022/07/13 04:09:02;;;;;;;5.40;3.38;;;21.30;65.10;;;;;;5056783;28;20112;-55
2022/07/13 04:11:27;;;;;;;6.10;3.30;;;21.20;65.30;;;;;;5056824;28;20022;-57
2022/07/13 04:13:53;;;;;;;4.57;3.38;;;21.20;66.40;;;;;;5049436;28;20025;-57
2022/07/13 04:16:19;;;;;;;4.50;3.10;;;21.10;65.70;;;;;;5056681;28;20055;-58
2022/07/13 04:18:45;;;;;;;4.10;2.97;;;21.10;65.50;;;;;;5057422;28;20033;-54
2022/07/13 04:21:13;;;;;;;6.03;3.40;;;21.10;65.30;;;;;;5039633;28;20039;-53
2022/07/13 04:23:40;;;;;;;5.80;3.40;;;21.10;65.00;;;;;;5040290;28;20043;-57
2022/07/13 04:26:06;;;;;;;7.13;3.35;;;21.10;65.30;;;;;;5050463;28;20401;-56
2022/07/13 04:28:32;;;;;;;5.60;3.10;;;21.10;65.60;;;;;;5057872;28;20025;-55
2022/07/13 04:30:58;;;;;;;5.47;3.40;;;21.10;65.60;;;;;;5043916;28;20080;-57
2022/07/13 04:33:23;;;;;;;9.38;3.38;;;21.10;65.50;;;;;;5038175;28;20032;-55
2022/07/13 04:35:49;;;;;;;7.32;3.53;;;21.00;65.30;;;;;;5044548;28;20030;-55
2022/07/13 04:38:15;;;;;;;5.38;3.30;;;21.00;64.70;;;;;;5037339;28;20539;-56
2022/07/13 04:40:41;;;;;;;6.00;3.50;;;21.00;65.30;;;;;;5038459;28;20053;-57
2022/07/13 04:43:07;;;;;;;7.10;3.63;;;21.00;65.50;;;;;;5037493;28;20093;-54
2022/07/13 04:45:32;;;;;;;6.35;3.25;;;21.00;66.40;;;;;;5049867;28;20025;-57
2022/07/13 04:47:59;;;;;;;5.22;3.50;;;21.00;65.70;;;;;;5037327;28;20426;-57
2022/07/13 04:50:25;;;;;;;6.40;3.47;;;21.00;65.10;;;;;;5037299;28;20108;-57
2022/07/13 04:52:51;;;;;;;6.20;3.45;;;21.00;65.90;;;;;;5037675;28;20095;-55
2022/07/13 04:55:17;;;;;;;4.40;3.30;;;21.00;65.60;;;;;;5043819;28;20026;-57
2022/07/13 04:57:43;;;;;;;4.43;3.25;;;21.00;65.00;;;;;;5039070;28;20029;-57
2022/07/13 05:00:10;;;;;;;5.13;3.38;;;21.10;65.00;;;;;;5047977;28;20056;-56
2022/07/13 05:02:36;;;;;;;5.30;3.33;;;21.00;63.70;;;;;;5055081;28;20503;-52
2022/07/13 05:05:03;;;;;;;4.70;3.28;;;21.00;64.00;;;;;;5045006;28;20389;-57
2022/07/13 05:07:29;;;;;;;3.70;2.90;;;21.00;63.90;;;;;;5055666;28;20021;-56
2022/07/13 05:09:56;;;;;;;5.47;3.20;;;21.00;65.90;;;;;;5043628;28;20032;-57
2022/07/13 05:12:22;;;;;;;5.28;3.47;;;21.00;65.10;;;;;;5044697;28;20094;-56
2022/07/13 05:14:48;;;;;;;4.85;3.35;;;21.10;66.30;;;;;;5045305;28;20116;-52
2022/07/13 05:17:15;;;;;;;6.03;3.10;;;21.10;66.10;;;;;;5045359;28;20068;-54
2022/07/13 05:19:42;;;;;;;4.80;2.90;;;21.20;66.10;;;;;;5045522;28;20116;-50
2022/07/13 05:22:08;;;;;;;6.68;3.42;;;21.30;65.90;;;;;;5048537;28;20470;-53
2022/07/13 05:24:34;;;;;;;4.35;3.05;;;21.30;65.20;;;;;;5054307;28;20037;-55
2022/07/13 05:27:00;;;;;;;5.32;3.20;;;21.30;65.50;;;;;;5054994;28;20443;-54
2022/07/13 05:29:26;;;;;;;5.07;3.35;;;21.30;65.50;;;;;;5042704;28;20051;-51
2022/07/13 05:31:52;;;;;;;3.92;3.10;;;21.40;64.10;;;;;;5042850;28;20025;-51
2022/07/13 05:34:18;;;;;;;5.93;2.90;;;21.40;64.60;;;;;;5043732;28;20028;-52
2022/07/13 05:36:44;;;;;;;4.05;2.75;;;21.30;64.30;;;;;;5041483;28;20033;-52
2022/07/13 05:39:10;;;;;;;5.93;3.53;;;21.40;64.70;;;;;;5040889;28;20026;-51
2022/07/13 05:41:35;;;;;;;4.72;3.42;;;21.40;64.90;;;;;;5044095;28;20062;-51
2022/07/13 05:44:01;;;;;;;4.18;3.00;;;21.40;65.20;;;;;;5050853;28;20385;-52
2022/07/13 05:46:27;;;;;;;3.95;2.90;;;21.40;64.90;;;;;;5040115;28;20025;-51
2022/07/13 05:48:53;;;;;;;5.72;2.90;;;21.50;64.90;;;;;;5048190;28;20447;-53
2022/07/13 05:51:19;;;;;;;3.92;3.00;;;21.50;64.30;;;;;;5044410;28;20112;-54
2022/07/13 05:53:46;;;;;;;6.80;3.00;;;21.40;64.40;;;;;;5047271;28;20556;-52
2022/07/13 05:56:13;;;;;;;5.45;2.97;;;21.50;64.10;;;;;;5046781;28;20037;-53
2022/07/13 05:58:39;;;;;;;6.07;2.88;;;21.50;64.50;;;;;;5041394;28;20031;-52
2022/07/13 06:01:05;;;;;;;6.28;3.10;;;21.50;64.80;;;;;;5043272;28;20057;-49
2022/07/13 06:03:31;;;;;;;5.43;3.13;;;21.50;64.50;;;;;;5046944;28;20034;-55
2022/07/13 06:05:57;;;;;;;4.90;2.70;;;21.60;65.30;;;;;;5056664;28;20032;-53
2022/07/13 06:08:23;;;;;;;4.25;3.08;;;21.60;64.50;;;;;;5054107;28;20017;-40
2022/07/13 06:10:52;;;;;;;5.68;2.90;;;21.70;64.70;;;;;;5054543;28;20037;-40
2022/07/13 06:13:18;;;;;;;5.20;2.70;;;21.70;64.90;;;;;;5045414;28;20033;-40
2022/07/13 06:15:44;;;;;;;4.43;3.42;;;21.70;64.30;;;;;;5053275;28;20036;-39
2022/07/13 06:18:09;;;;;;;3.95;2.67;;;21.70;64.60;;;;;;5060861;28;20055;-39
2022/07/13 06:20:36;;;;;;;3.63;2.55;;;21.80;65.20;;;;;;5063052;28;20481;-39
2022/07/13 06:23:12;;;;;;;5.18;3.03;;;21.80;64.80;;;;;;5058217;28;20489;-39
2022/07/13 06:25:41;;;;;;;3.67;2.75;;;21.80;64.70;;;;;;5051090;28;20036;-39
2022/07/13 06:28:07;;;;;;;3.97;2.90;;;21.90;64.50;;;;;;5045032;28;20052;-39
2022/07/13 06:30:34;;;;;;;5.47;3.13;;;21.90;64.90;;;;;;5058696;28;20025;-39
2022/07/13 06:33:00;;;;;;;3.65;2.75;;;22.00;65.00;;;;;;5056182;28;20525;-38
2022/07/13 06:35:26;;;;;;;3.58;2.60;;;22.00;64.00;;;;;;5052426;28;20029;-40
2022/07/13 06:37:52;;;;;;;3.38;2.40;;;22.00;64.20;;;;;;5040330;28;20041;-40
2022/07/13 06:40:18;;;;;;;3.30;2.65;;;22.10;64.20;;;;;;5039694;28;20033;-40
2022/07/13 06:42:44;;;;;;;4.18;2.78;;;22.10;64.20;;;;;;5039675;28;20393;-39
2022/07/13 06:45:10;;;;;;;4.13;2.70;;;22.20;64.40;;;;;;5039758;28;20104;-39
2022/07/13 06:47:36;;;;;;;5.05;2.85;;;22.20;64.80;;;;;;5042437;28;20021;-38
2022/07/13 06:50:03;;;;;;;4.35;2.95;;;22.30;64.70;;;;;;5047235;28;20025;-40
2022/07/13 06:52:29;;;;;;;3.60;2.70;;;22.40;64.50;;;;;;5039452;28;20026;-40
2022/07/13 06:54:54;;;;;;;5.45;3.03;;;22.40;64.70;;;;;;5046353;28;20032;-38
2022/07/13 06:57:20;;;;;;;4.53;3.15;;;22.50;64.70;;;;;;5053900;28;20500;-39
2022/07/13 06:59:46;;;;;;;5.80;3.13;;;22.60;64.20;;;;;;5057096;28;20064;-39
2022/07/13 07:02:12;;;;;;;4.65;2.92;;;22.70;64.60;;;;;;5057734;28;20032;-38
2022/07/13 07:04:37;;;;;;;5.15;2.90;;;22.70;64.70;;;;;;5059095;28;20342;-39
2022/07/13 07:07:03;;;;;;;3.35;2.40;;;22.80;64.70;;;;;;5058145;28;20024;-39
2022/07/13 07:09:29;;;;;;;5.15;2.85;;;22.80;64.20;;;;;;5058769;28;20028;-39
2022/07/13 07:11:55;;;;;;;8.50;2.80;;;22.90;64.50;;;;;;5058150;28;20029;-40
2022/07/13 07:14:21;;;;;;;4.32;2.70;;;23.00;64.20;;;;;;5056966;28;20393;-39
2022/07/13 07:16:47;;;;;;;4.20;2.10;;;23.10;64.10;;;;;;5057667;28;20021;-39
2022/07/13 07:19:13;;;;;;;5.25;2.72;;;23.10;64.40;;;;;;5058054;28;20028;-39
2022/07/13 07:21:40;;;;;;;4.53;2.50;;;23.20;64.20;;;;;;5058390;28;20048;-39
2022/07/13 07:24:06;;;;;;;3.88;2.55;;;23.30;63.80;;;;;;5058096;28;20047;-39
2022/07/13 07:26:31;;;;;;;3.97;2.50;;;23.40;63.90;;;;;;5058068;28;20378;-40
2022/07/13 07:28:58;;;;;;;6.07;2.70;;;23.50;63.80;;;;;;5059250;28;20029;-38
2022/07/13 07:31:25;;;;;;;4.88;2.42;;;23.50;64.10;;;;;;5059358;28;20029;-38
2022/07/13 07:33:51;;;;;;;3.40;2.25;;;23.60;64.20;;;;;;5059372;28;20032;-38
2022/07/13 07:36:17;;;;;;;4.43;2.50;;;23.80;63.80;;;;;;5059324;28;20052;-39
2022/07/13 07:38:43;;;;;;;4.57;2.47;;;23.90;63.70;;;;;;5059058;28;20025;-39
2022/07/13 07:41:10;;;;;;;6.00;2.42;;;24.00;63.80;;;;;;5059264;28;20028;-38
2022/07/13 07:43:37;;;;;;;4.22;2.28;;;24.10;63.60;;;;;;5058972;28;20017;-38
2022/07/13 07:46:03;;;;;;;5.25;2.53;;;24.20;63.30;;;;;;5058867;28;20029;-39
2022/07/13 07:48:28;;;;;;;7.25;2.22;;;24.30;63.30;;;;;;5059063;28;20025;-39
2022/07/13 07:50:54;;;;;;;4.65;2.60;;;24.40;63.20;;;;;;5058813;28;20024;-39
2022/07/13 07:53:20;;;;;;;4.50;2.40;;;24.50;63.00;;;;;;5058891;28;20079;-44
2022/07/13 07:55:46;;;;;;;3.40;2.20;;;24.60;63.10;;;;;;5058911;28;20021;-44
2022/07/13 07:58:13;;;;;;;5.15;2.58;;;24.70;62.60;;;;;;5058834;28;20037;-44
2022/07/13 08:00:40;;;;;;;3.83;2.22;;;24.80;62.30;;;;;;5058396;28;20057;-49
2022/07/13 08:03:07;;;;;;;4.18;2.40;;;24.80;62.10;;;;;;5058609;28;20040;-46
2022/07/13 08:05:33;;;;;;;3.53;2.20;;;24.90;61.90;;;;;;5058948;28;20032;-51
2022/07/13 08:07:59;;;;;;;4.78;2.63;;;25.00;62.40;;;;;;5058469;28;20033;-49
2022/07/13 08:10:25;;;;;;;4.07;2.20;;;25.10;62.00;;;;;;5058702;28;20372;-48
2022/07/13 08:12:53;;;;;;;6.18;2.60;;;25.10;61.90;;;;;;5057471;28;20045;-49
2022/07/13 08:15:20;;;;;;;2.88;2.33;;;25.20;62.20;;;;;;5058572;28;20021;-47
2022/07/13 08:17:46;;;;;;;2.63;2.28;;;25.30;61.40;;;;;;5058492;28;20021;-49
2022/07/13 08:20:12;;;;;;;2.42;2.20;;;25.40;61.80;;;;;;5058268;28;20036;-50
2022/07/13 08:22:39;;;;;;;4.38;2.30;;;25.50;61.90;;;;;;5058375;28;20108;-47
2022/07/13 08:25:05;;;;;;;3.75;2.60;;;25.50;60.60;;;;;;5058105;28;20025;-47
2022/07/13 08:27:32;;;;;;;5.90;2.83;;;25.60;60.50;;;;;;5057995;28;20473;-53
2022/07/13 08:29:59;;;;;;;3.58;2.28;;;25.60;61.20;;;;;;5058355;28;20075;-51
2022/07/13 08:32:25;;;;;;;5.82;2.40;;;25.80;60.50;;;;;;5057892;28;20480;-51
2022/07/13 08:40:20;;;;;;;3.17;2.33;;;26.00;58.60;;;;;;5057772;28;20620;-52
2022/07/13 08:42:47;;;;;;;4.55;2.30;;;26.00;57.30;;;;;;5057387;28;20489;-53
2022/07/13 08:45:13;;;;;;;3.67;2.40;;;26.10;58.60;;;;;;5057426;28;20033;-52
2022/07/13 08:47:41;;;;;;;3.45;2.17;;;26.20;60.40;;;;;;5057354;28;20025;-50
2022/07/13 08:50:09;;;;;;;3.85;2.20;;;26.30;58.00;;;;;;5057503;28;20017;-52
2022/07/13 08:52:39;;;;;;;3.20;2.63;;;26.40;58.20;;;;;;5057328;28;20044;-53
2022/07/13 08:55:06;;;;;;;4.45;2.50;;;26.40;55.20;;;;;;5057028;28;20021;-54
2022/07/13 08:57:38;;;;;;;4.05;2.42;;;26.40;54.00;;;;;;5057409;28;20036;-52
2022/07/13 09:00:08;;;;;;;3.42;2.22;;;26.50;58.00;;;;;;5057196;28;20132;-47
2022/07/13 09:02:34;;;;;;;4.38;2.42;;;26.60;55.00;;;;;;5057371;28;20048;-50
2022/07/13 09:05:04;;;;;;;4.30;2.40;;;26.70;57.30;;;;;;5057077;28;20052;-48
2022/07/13 09:07:31;;;;;;;5.32;2.60;;;26.80;53.90;;;;;;5057350;28;20013;-53
2022/07/13 09:09:57;;;;;;;5.35;2.40;;;26.80;54.90;;;;;;5057115;28;20102;-51
2022/07/13 09:12:24;;;;;;;4.60;2.42;;;26.90;55.50;;;;;;5057415;28;20021;-52
2022/07/13 09:14:56;;;;;;;4.65;2.40;;;27.00;55.00;;;;;;5057501;28;20024;-52
2022/07/13 09:17:44;;;;;;;4.53;2.38;;;27.00;53.30;;;;;;5057225;28;20068;-53
2022/07/13 09:20:13;;;;;;;2.40;2.20;;;27.10;52.00;;;;;;5057171;28;20088;-50
2022/07/13 09:22:52;;;;;;;3.60;2.35;;;27.10;52.70;;;;;;5057175;28;20029;-47
2022/07/13 09:25:38;;;;;;;8.50;2.80;;;27.20;46.60;;;;;;5060980;28;20025;-48
2022/07/13 09:28:08;;;;;;;4.38;2.90;;;27.20;55.90;;;;;;5061061;28;20138;-50
2022/07/13 09:30:37;;;;;;;5.97;2.72;;;27.30;56.20;;;;;;5061205;28;20025;-47
2022/07/13 09:33:03;;;;;;;4.65;2.83;;;27.40;53.90;;;;;;5061097;28;20021;-50
2022/07/13 09:35:41;;;;;;;4.03;2.97;;;27.50;53.70;;;;;;5061093;28;20025;-52
2022/07/13 09:38:07;;;;;;;4.90;2.90;;;27.50;49.30;;;;;;5060867;28;20385;-53
2022/07/13 09:40:33;;;;;;;4.65;2.88;;;27.60;54.20;;;;;;5061083;28;20029;-48
2022/07/13 09:48:27;;;;;;;5.72;2.80;;;28.00;52.90;;;;;;5060822;28;20070;-48
2022/07/13 09:50:55;;;;;;;5.05;2.95;;;28.10;50.90;;;;;;5060895;28;20099;-52
2022/07/13 09:53:29;;;;;;;5.95;3.08;;;28.30;50.60;;;;;;5060446;28;20021;-47
2022/07/13 09:55:57;;;;;;;5.35;2.92;;;28.50;50.60;;;;;;5060631;28;20025;-51
2022/07/13 09:58:27;;;;;;;5.07;2.75;;;28.50;48.00;;;;;;5060725;28;20035;-52
2022/07/13 10:00:56;;;;;;;6.82;2.95;;;28.60;47.10;;;;;;5060057;28;20132;-51
2022/07/13 10:03:23;;;;;;;7.90;2.90;;;28.80;48.20;;;;;;5060398;28;20060;-51
2022/07/13 10:05:51;;;;;;;3.08;2.50;;;29.00;49.60;;;;;;5060553;28;20025;-50
2022/07/13 10:08:18;;;;;;;5.00;2.80;;;29.20;45.30;;;;;;5060409;28;20404;-51
2022/07/13 10:10:45;;;;;;;4.70;2.50;;;29.30;44.80;;;;;;5060451;28;20029;-52
2022/07/13 10:13:12;;;;;;;3.70;2.70;;;29.40;45.00;;;;;;5060177;28;20526;-52
2022/07/13 10:15:39;;;;;;;8.95;2.75;;;29.70;46.30;;;;;;5060198;28;20029;-52
2022/07/13 10:18:09;;;;;;;4.18;2.50;;;30.00;47.70;;;;;;5060151;28;20025;-48
2022/07/13 10:20:39;;;;;;;6.55;2.97;;;30.30;47.10;;;;;;5059889;28;20040;-51
2022/07/13 10:23:05;;;;;;;4.55;3.00;;;30.50;45.60;;;;;;5060093;28;20107;-52
2022/07/13 10:25:45;;;;;;;5.53;3.20;;;30.90;48.80;;;;;;5058465;28;20049;-53
2022/07/13 10:28:12;;;;;;;8.63;2.97;;;31.40;46.20;;;;;;5059898;28;20025;-51
2022/07/13 10:30:38;;;;;;;3.97;2.58;;;31.70;46.90;;;;;;5059714;28;20477;-52
2022/07/13 10:33:20;;;;;;;4.22;2.70;;;31.90;47.00;;;;;;5059995;28;20025;-52
2022/07/13 10:35:53;;;;;;;3.05;2.63;;;32.20;47.10;;;;;;5059040;28;20023;-55
2022/07/13 10:38:26;;;;;;;4.22;2.60;;;32.60;47.50;;;;;;5059920;28;20029;-54
2022/07/13 10:41:21;;;;;;;4.63;2.80;;;32.70;44.80;;;;;;5059850;28;20082;-54
2022/07/13 10:44:06;;;;;;;4.30;2.80;;;32.90;42.40;;;;;;5059936;28;20025;-54
2022/07/13 10:46:49;;;;;;;4.63;2.80;;;32.80;45.50;;;;;;5060002;28;20028;-52
2022/07/13 10:49:33;;;;;;;4.25;2.50;;;33.00;45.00;;;;;;5059741;28;20151;-54
2022/07/13 10:52:26;;;;;;;5.65;2.63;;;33.20;42.60;;;;;;5059802;28;20056;-50
2022/07/13 10:55:11;;;;;;;;;;;33.30;40.30;;;;;;5060175;28;20107;-53
2022/07/13 10:57:38;;;;;;;4.28;2.72;;;33.40;44.10;;;;;;5059532;28;19905;-54
2022/07/13 11:00:16;;;;;;;3.85;2.35;;;33.50;41.90;;;;;;5059073;28;20586;-51
2022/07/13 11:02:44;;;;;;;3.67;2.63;;;33.70;40.40;;;;;;5059516;28;20064;-51
2022/07/13 11:05:11;;;;;;;3.53;2.35;;;34.20;38.00;;;;;;5059251;28;20047;-53
2022/07/13 11:07:42;;;;;;;5.13;2.83;;;34.60;40.20;;;;;;5059398;28;20040;-54
2022/07/13 11:10:20;;;;;;;4.40;2.50;;;34.90;38.20;;;;;;5059235;28;20025;-51
2022/07/13 11:13:01;;;;;;;4.47;2.22;;;35.30;40.40;;;;;;5059096;28;20033;-53
2022/07/13 11:15:52;;;;;;;3.97;2.53;;;35.60;38.50;;;;;;5059224;28;20029;-55
2022/07/13 11:18:21;;;;;;;3.38;2.33;;;35.30;40.80;;;;;;5059185;28;20440;-53
2022/07/13 11:21:23;;;;;;;6.32;2.40;;;35.20;37.70;;;;;;5059129;28;20021;-52
2022/07/13 11:27:07;;;;;;;3.58;2.63;;;35.00;37.50;;;;;;5059138;28;20520;-52
2022/07/13 11:29:48;;;;;;;4.78;2.60;;;35.00;35.80;;;;;;5058541;28;20530;-53
2022/07/13 11:32:19;;;;;;;4.22;2.33;;;35.00;36.00;;;;;;5058859;28;20029;-54
2022/07/13 11:34:46;;;;;;;4.78;2.60;;;35.20;37.40;;;;;;5058779;28;20103;-50
2022/07/13 11:37:13;;;;;;;4.38;2.35;;;35.40;35.30;;;;;;5058941;28;20028;-53
2022/07/13 11:39:39;;;;;;;4.22;2.40;;;35.70;34.70;;;;;;5058546;28;20097;-52
2022/07/13 11:42:07;;;;;;;3.78;2.45;;;36.20;34.90;;;;;;5058540;28;20029;-50
2022/07/13 11:44:34;;;;;;;3.55;2.50;;;36.30;35.70;;;;;;5058474;28;20092;-53
2022/07/13 11:47:08;;;;;;;5.40;2.53;;;36.50;35.80;;;;;;5058611;28;20096;-54
2022/07/13 11:49:48;;;;;;;2.58;2.33;;;36.50;36.80;;;;;;5058622;28;20028;-50
2022/07/13 11:52:24;;;;;;;3.33;2.20;;;36.50;35.60;;;;;;5058155;28;20519;-53
2022/07/13 11:55:01;;;;;;;5.30;2.60;;;36.70;34.60;;;;;;5058542;28;20377;-52
2022/07/13 11:57:28;;;;;;;3.40;2.05;;;36.50;35.60;;;;;;5058411;28;20032;-54
2022/07/13 12:00:02;;;;;;;3.15;2.83;;;36.50;34.10;;;;;;5058228;28;20083;-55
2022/07/13 12:02:28;;;;;;;3.80;2.45;;;36.90;37.70;;;;;;5058596;28;20104;-50
2022/07/13 12:04:54;;;;;;;4.15;2.33;;;37.10;34.30;;;;;;5058276;28;20091;-56
2022/07/13 12:07:25;;;;;;;5.43;2.42;;;37.20;34.70;;;;;;5058035;28;20106;-55
2022/07/13 12:09:59;;;;;;;4.65;2.78;;;37.10;32.90;;;;;;5058139;28;20035;-54
2022/07/13 12:12:27;;;;;;;5.15;2.55;;;37.40;34.20;;;;;;5058411;28;20116;-53
2022/07/13 12:14:54;;;;;;;6.90;2.80;;;37.30;34.90;;;;;;5058340;28;20035;-51
2022/07/13 12:17:21;;;;;;;5.80;2.80;;;36.90;33.80;;;;;;5057880;28;20049;-53
2022/07/13 12:19:47;;;;;;;7.50;2.65;;;36.60;34.20;;;;;;5058148;28;20032;-53
2022/07/13 12:22:13;;;;;;;4.15;2.80;;;36.40;35.10;;;;;;5057845;28;20063;-52
2022/07/13 12:24:44;;;;;;;3.33;2.60;;;36.00;35.80;;;;;;5057924;28;20029;-52
2022/07/13 12:27:25;;;;;;;4.40;2.47;;;36.10;35.40;;;;;;5057919;28;20027;-53
2022/07/13 12:29:52;;;;;;;3.80;2.80;;;36.40;35.50;;;;;;5057558;28;20025;-52
2022/07/13 12:32:18;;;;;;;6.38;3.28;;;36.60;36.50;;;;;;5057634;28;20028;-49
2022/07/13 12:34:54;;;;;;;5.95;2.75;;;36.90;34.90;;;;;;5057704;28;20040;-52
2022/07/13 12:37:36;;;;;;;3.22;2.70;;;36.80;34.20;;;;;;5057498;28;20393;-53
2022/07/13 12:40:05;;;;;;;4.95;2.90;;;36.60;35.50;;;;;;5057644;28;20040;-50
2022/07/13 12:42:35;;;;;;;3.15;2.40;;;36.60;35.20;;;;;;5057265;28;20028;-50
2022/07/13 12:45:14;;;;;;;4.88;3.15;;;36.40;34.70;;;;;;5057337;28;20488;-53
2022/07/13 12:47:39;;;;;;;6.30;2.67;;;36.50;34.90;;;;;;5056965;28;20032;-55
2022/07/13 12:50:29;;;;;;;5.05;2.70;;;36.60;35.30;;;;;;5057145;28;20461;-53
2022/07/13 12:53:02;;;;;;;4.85;2.80;;;36.70;34.40;;;;;;5057157;28;20088;-50
2022/07/13 12:55:28;;;;;;;5.22;2.30;;;36.50;33.20;;;;;;5057289;28;20473;-53
2022/07/13 12:57:54;;;;;;;4.18;2.58;;;36.50;34.70;;;;;;5056653;28;20072;-53
2022/07/13 13:00:25;;;;;;;4.63;2.70;;;36.90;34.80;;;;;;5056679;28;20053;-54
2022/07/13 13:02:51;;;;;;;5.45;2.97;;;37.10;33.60;;;;;;5055735;28;20033;-51
2022/07/13 13:05:17;;;;;;;6.07;3.15;;;37.00;34.40;;;;;;5057101;28;20097;-47